sensor_id;sensor_type;location;lat;lon;timestamp;P1;durP1;ratioP1;P2;durP2;ratioP2
4634;SDS011;2330;48.158;11.816;2022-08-21T00:00:12;1.57;;;1.47;;
4634;SDS011;2330;48.158;11.816;2022-08-21T00:02:53;4.83;;;2.50;;
4634;SDS011;2330;48.158;11.816;2022-08-21T00:05:23;2.30;;;2.10;;
4634;SDS011;2330;48.158;11.816;2022-08-21T00:07:51;2.20;;;2.00;;
4634;SDS011;2330;48.158;11.816;2022-08-21T00:10:18;2.73;;;2.23;;
4634;SDS011;2330;48.158;11.816;2022-08-21T00:12:45;2.30;;;2.10;;
4634;SDS011;2330;48.158;11.816;2022-08-21T00:15:14;2.20;;;2.10;;
4634;SDS011;2330;48.158;11.816;2022-08-21T00:17:43;2.40;;;2.20;;
4634;SDS011;2330;48.158;11.816;2022-08-21T00:20:11;4.67;;;2.30;;
4634;SDS011;2330;48.158;11.816;2022-08-21T00:22:39;2.17;;;2.03;;
4634;SDS011;2330;48.158;11.816;2022-08-21T00:25:06;2.30;;;2.00;;
4634;SDS011;2330;48.158;11.816;2022-08-21T00:27:34;3.20;;;1.77;;
4634;SDS011;2330;48.158;11.816;2022-08-21T00:30:02;2.20;;;2.00;;
4634;SDS011;2330;48.158;11.816;2022-08-21T00:32:30;2.70;;;2.50;;
4634;SDS011;2330;48.158;11.816;2022-08-21T00:34:57;2.30;;;2.10;;
4634;SDS011;2330;48.158;11.816;2022-08-21T00:37:24;2.50;;;2.30;;
4634;SDS011;2330;48.158;11.816;2022-08-21T00:39:51;2.63;;;2.43;;
4634;SDS011;2330;48.158;11.816;2022-08-21T00:42:19;2.97;;;2.17;;
4634;SDS011;2330;48.158;11.816;2022-08-21T00:44:47;3.03;;;1.97;;
4634;SDS011;2330;48.158;11.816;2022-08-21T00:47:15;1.90;;;1.80;;
4634;SDS011;2330;48.158;11.816;2022-08-21T00:49:42;3.50;;;2.20;;
4634;SDS011;2330;48.158;11.816;2022-08-21T00:52:12;4.53;;;2.30;;
4634;SDS011;2330;48.158;11.816;2022-08-21T00:54:43;2.27;;;1.80;;
4634;SDS011;2330;48.158;11.816;2022-08-21T00:57:17;2.67;;;2.10;;
4634;SDS011;2330;48.158;11.816;2022-08-21T00:59:51;2.70;;;2.23;;
4634;SDS011;2330;48.158;11.816;2022-08-21T01:02:20;1.80;;;1.70;;
4634;SDS011;2330;48.158;11.816;2022-08-21T01:04:47;2.10;;;2.00;;
4634;SDS011;2330;48.158;11.816;2022-08-21T01:07:14;3.10;;;1.87;;
4634;SDS011;2330;48.158;11.816;2022-08-21T01:09:45;3.50;;;2.30;;
4634;SDS011;2330;48.158;11.816;2022-08-21T01:12:13;2.03;;;1.80;;
4634;SDS011;2330;48.158;11.816;2022-08-21T01:14:40;2.03;;;1.80;;
4634;SDS011;2330;48.158;11.816;2022-08-21T01:17:09;4.97;;;2.13;;
4634;SDS011;2330;48.158;11.816;2022-08-21T01:19:41;2.40;;;1.80;;
4634;SDS011;2330;48.158;11.816;2022-08-21T01:22:09;1.90;;;1.63;;
4634;SDS011;2330;48.158;11.816;2022-08-21T01:24:35;2.43;;;1.90;;
4634;SDS011;2330;48.158;11.816;2022-08-21T01:27:02;4.63;;;2.10;;
4634;SDS011;2330;48.158;11.816;2022-08-21T01:29:41;3.60;;;1.83;;
4634;SDS011;2330;48.158;11.816;2022-08-21T01:32:13;2.93;;;2.07;;
4634;SDS011;2330;48.158;11.816;2022-08-21T01:34:42;4.50;;;2.00;;
4634;SDS011;2330;48.158;11.816;2022-08-21T01:37:11;2.10;;;1.90;;
4634;SDS011;2330;48.158;11.816;2022-08-21T01:39:38;2.07;;;1.80;;
4634;SDS011;2330;48.158;11.816;2022-08-21T01:42:08;2.10;;;1.90;;
4634;SDS011;2330;48.158;11.816;2022-08-21T01:44:35;2.93;;;1.70;;
4634;SDS011;2330;48.158;11.816;2022-08-21T01:47:04;3.80;;;2.03;;
4634;SDS011;2330;48.158;11.816;2022-08-21T01:49:33;3.17;;;1.40;;
4634;SDS011;2330;48.158;11.816;2022-08-21T01:52:01;5.40;;;1.37;;
4634;SDS011;2330;48.158;11.816;2022-08-21T01:54:29;1.50;;;1.40;;
4634;SDS011;2330;48.158;11.816;2022-08-21T01:56:56;1.93;;;1.57;;
4634;SDS011;2330;48.158;11.816;2022-08-21T01:59:25;4.00;;;1.67;;
4634;SDS011;2330;48.158;11.816;2022-08-21T02:01:52;1.73;;;1.50;;
4634;SDS011;2330;48.158;11.816;2022-08-21T02:04:22;2.43;;;1.73;;
4634;SDS011;2330;48.158;11.816;2022-08-21T02:06:50;2.37;;;1.20;;
4634;SDS011;2330;48.158;11.816;2022-08-21T02:09:17;4.70;;;1.93;;
4634;SDS011;2330;48.158;11.816;2022-08-21T02:11:45;4.10;;;1.63;;
4634;SDS011;2330;48.158;11.816;2022-08-21T02:14:13;2.80;;;1.90;;
4634;SDS011;2330;48.158;11.816;2022-08-21T02:16:57;1.60;;;1.50;;
4634;SDS011;2330;48.158;11.816;2022-08-21T02:19:34;2.33;;;1.40;;
4634;SDS011;2330;48.158;11.816;2022-08-21T02:22:06;1.47;;;1.37;;
4634;SDS011;2330;48.158;11.816;2022-08-21T02:24:34;1.47;;;1.37;;
4634;SDS011;2330;48.158;11.816;2022-08-21T02:27:20;1.90;;;1.70;;
4634;SDS011;2330;48.158;11.816;2022-08-21T02:29:52;1.67;;;1.50;;
4634;SDS011;2330;48.158;11.816;2022-08-21T02:32:20;1.70;;;1.60;;
4634;SDS011;2330;48.158;11.816;2022-08-21T02:34:47;2.37;;;1.67;;
4634;SDS011;2330;48.158;11.816;2022-08-21T02:37:15;1.70;;;1.60;;
4634;SDS011;2330;48.158;11.816;2022-08-21T02:39:42;2.27;;;1.37;;
4634;SDS011;2330;48.158;11.816;2022-08-21T02:42:08;2.00;;;1.90;;
4634;SDS011;2330;48.158;11.816;2022-08-21T02:44:35;1.43;;;1.33;;
4634;SDS011;2330;48.158;11.816;2022-08-21T02:47:02;1.30;;;1.20;;
4634;SDS011;2330;48.158;11.816;2022-08-21T02:49:28;2.70;;;1.53;;
4634;SDS011;2330;48.158;11.816;2022-08-21T02:51:55;3.47;;;1.30;;
4634;SDS011;2330;48.158;11.816;2022-08-21T02:54:22;1.83;;;1.73;;
4634;SDS011;2330;48.158;11.816;2022-08-21T02:56:48;1.53;;;1.43;;
4634;SDS011;2330;48.158;11.816;2022-08-21T02:59:15;1.77;;;1.67;;
4634;SDS011;2330;48.158;11.816;2022-08-21T03:01:42;3.73;;;1.30;;
4634;SDS011;2330;48.158;11.816;2022-08-21T03:04:09;1.67;;;1.57;;
4634;SDS011;2330;48.158;11.816;2022-08-21T03:06:36;2.10;;;2.00;;
4634;SDS011;2330;48.158;11.816;2022-08-21T03:09:03;3.00;;;1.80;;
4634;SDS011;2330;48.158;11.816;2022-08-21T03:11:29;1.70;;;1.60;;
4634;SDS011;2330;48.158;11.816;2022-08-21T03:13:56;1.40;;;1.23;;
4634;SDS011;2330;48.158;11.816;2022-08-21T03:16:23;1.50;;;1.40;;
4634;SDS011;2330;48.158;11.816;2022-08-21T03:18:50;5.27;;;1.40;;
4634;SDS011;2330;48.158;11.816;2022-08-21T03:21:16;2.93;;;1.63;;
4634;SDS011;2330;48.158;11.816;2022-08-21T03:23:45;6.30;;;1.57;;
4634;SDS011;2330;48.158;11.816;2022-08-21T03:26:11;1.70;;;1.60;;
4634;SDS011;2330;48.158;11.816;2022-08-21T03:28:39;1.60;;;1.50;;
4634;SDS011;2330;48.158;11.816;2022-08-21T03:31:05;2.03;;;1.70;;
4634;SDS011;2330;48.158;11.816;2022-08-21T03:33:32;1.80;;;1.70;;
4634;SDS011;2330;48.158;11.816;2022-08-21T03:36:00;2.10;;;1.90;;
4634;SDS011;2330;48.158;11.816;2022-08-21T03:38:30;1.57;;;1.47;;
4634;SDS011;2330;48.158;11.816;2022-08-21T03:40:58;3.17;;;1.70;;
4634;SDS011;2330;48.158;11.816;2022-08-21T03:43:26;2.17;;;1.90;;
4634;SDS011;2330;48.158;11.816;2022-08-21T03:45:57;4.30;;;2.40;;
4634;SDS011;2330;48.158;11.816;2022-08-21T03:48:24;2.37;;;2.00;;
4634;SDS011;2330;48.158;11.816;2022-08-21T03:50:51;9.87;;;1.97;;
4634;SDS011;2330;48.158;11.816;2022-08-21T03:53:19;2.13;;;1.90;;
4634;SDS011;2330;48.158;11.816;2022-08-21T03:55:46;1.80;;;1.70;;
4634;SDS011;2330;48.158;11.816;2022-08-21T03:58:15;2.00;;;1.90;;
4634;SDS011;2330;48.158;11.816;2022-08-21T04:00:47;3.30;;;1.90;;
4634;SDS011;2330;48.158;11.816;2022-08-21T04:03:16;5.90;;;1.80;;
4634;SDS011;2330;48.158;11.816;2022-08-21T04:05:43;2.40;;;1.83;;
4634;SDS011;2330;48.158;11.816;2022-08-21T04:08:12;1.70;;;1.60;;
4634;SDS011;2330;48.158;11.816;2022-08-21T04:10:40;3.27;;;1.90;;
4634;SDS011;2330;48.158;11.816;2022-08-21T04:13:08;4.00;;;2.07;;
4634;SDS011;2330;48.158;11.816;2022-08-21T04:15:34;1.70;;;1.60;;
4634;SDS011;2330;48.158;11.816;2022-08-21T04:18:02;3.07;;;1.60;;
4634;SDS011;2330;48.158;11.816;2022-08-21T04:20:30;6.30;;;2.23;;
4634;SDS011;2330;48.158;11.816;2022-08-21T04:22:57;2.10;;;1.90;;
4634;SDS011;2330;48.158;11.816;2022-08-21T04:25:24;1.73;;;1.60;;
4634;SDS011;2330;48.158;11.816;2022-08-21T04:27:51;4.43;;;2.03;;
4634;SDS011;2330;48.158;11.816;2022-08-21T04:30:19;2.80;;;1.83;;
4634;SDS011;2330;48.158;11.816;2022-08-21T04:32:53;5.57;;;1.73;;
4634;SDS011;2330;48.158;11.816;2022-08-21T04:35:20;1.40;;;1.30;;
4634;SDS011;2330;48.158;11.816;2022-08-21T04:37:48;2.00;;;1.80;;
4634;SDS011;2330;48.158;11.816;2022-08-21T04:40:16;1.70;;;1.60;;
4634;SDS011;2330;48.158;11.816;2022-08-21T04:42:48;4.00;;;1.70;;
4634;SDS011;2330;48.158;11.816;2022-08-21T04:45:21;2.87;;;2.67;;
4634;SDS011;2330;48.158;11.816;2022-08-21T04:47:48;2.03;;;1.90;;
4634;SDS011;2330;48.158;11.816;2022-08-21T04:50:18;2.47;;;1.90;;
4634;SDS011;2330;48.158;11.816;2022-08-21T04:52:46;2.13;;;1.70;;
4634;SDS011;2330;48.158;11.816;2022-08-21T04:55:13;3.07;;;2.07;;
4634;SDS011;2330;48.158;11.816;2022-08-21T04:57:41;1.77;;;1.50;;
4634;SDS011;2330;48.158;11.816;2022-08-21T05:00:15;2.80;;;1.97;;
4634;SDS011;2330;48.158;11.816;2022-08-21T05:02:45;3.47;;;2.27;;
4634;SDS011;2330;48.158;11.816;2022-08-21T05:05:16;2.57;;;1.80;;
4634;SDS011;2330;48.158;11.816;2022-08-21T05:07:43;1.90;;;1.80;;
4634;SDS011;2330;48.158;11.816;2022-08-21T05:10:11;1.97;;;1.60;;
4634;SDS011;2330;48.158;11.816;2022-08-21T05:12:40;3.37;;;2.40;;
4634;SDS011;2330;48.158;11.816;2022-08-21T05:15:09;4.60;;;2.07;;
4634;SDS011;2330;48.158;11.816;2022-08-21T05:17:39;2.30;;;2.10;;
4634;SDS011;2330;48.158;11.816;2022-08-21T05:20:07;2.10;;;1.80;;
4634;SDS011;2330;48.158;11.816;2022-08-21T05:22:35;4.13;;;2.27;;
4634;SDS011;2330;48.158;11.816;2022-08-21T05:25:03;6.63;;;2.07;;
4634;SDS011;2330;48.158;11.816;2022-08-21T05:27:36;2.07;;;1.60;;
4634;SDS011;2330;48.158;11.816;2022-08-21T05:30:05;2.30;;;2.10;;
4634;SDS011;2330;48.158;11.816;2022-08-21T05:32:33;2.30;;;2.10;;
4634;SDS011;2330;48.158;11.816;2022-08-21T05:35:03;4.40;;;1.93;;
4634;SDS011;2330;48.158;11.816;2022-08-21T05:37:32;2.20;;;2.00;;
4634;SDS011;2330;48.158;11.816;2022-08-21T05:40:00;1.80;;;1.70;;
4634;SDS011;2330;48.158;11.816;2022-08-21T05:42:47;4.30;;;2.10;;
4634;SDS011;2330;48.158;11.816;2022-08-21T05:45:20;1.93;;;1.67;;
4634;SDS011;2330;48.158;11.816;2022-08-21T05:48:10;2.40;;;1.73;;
4634;SDS011;2330;48.158;11.816;2022-08-21T05:50:37;1.80;;;1.70;;
4634;SDS011;2330;48.158;11.816;2022-08-21T05:53:05;4.30;;;1.70;;
4634;SDS011;2330;48.158;11.816;2022-08-21T05:55:33;1.37;;;1.27;;
4634;SDS011;2330;48.158;11.816;2022-08-21T05:58:01;2.90;;;1.40;;
4634;SDS011;2330;48.158;11.816;2022-08-21T06:00:28;2.67;;;1.70;;
4634;SDS011;2330;48.158;11.816;2022-08-21T06:02:55;1.70;;;1.23;;
4634;SDS011;2330;48.158;11.816;2022-08-21T06:05:23;2.93;;;1.33;;
4634;SDS011;2330;48.158;11.816;2022-08-21T06:08:03;2.10;;;1.90;;
4634;SDS011;2330;48.158;11.816;2022-08-21T06:10:30;1.53;;;1.43;;
4634;SDS011;2330;48.158;11.816;2022-08-21T06:12:57;1.70;;;1.60;;
4634;SDS011;2330;48.158;11.816;2022-08-21T06:15:24;1.47;;;1.37;;
4634;SDS011;2330;48.158;11.816;2022-08-21T06:17:51;1.87;;;1.57;;
4634;SDS011;2330;48.158;11.816;2022-08-21T06:20:19;2.73;;;1.90;;
4634;SDS011;2330;48.158;11.816;2022-08-21T06:22:46;2.10;;;1.63;;
4634;SDS011;2330;48.158;11.816;2022-08-21T06:25:13;2.80;;;1.40;;
4634;SDS011;2330;48.158;11.816;2022-08-21T06:27:39;1.43;;;1.33;;
4634;SDS011;2330;48.158;11.816;2022-08-21T06:30:06;2.50;;;1.80;;
4634;SDS011;2330;48.158;11.816;2022-08-21T06:32:34;2.13;;;1.60;;
4634;SDS011;2330;48.158;11.816;2022-08-21T06:35:01;3.30;;;1.97;;
4634;SDS011;2330;48.158;11.816;2022-08-21T06:37:28;1.90;;;1.80;;
4634;SDS011;2330;48.158;11.816;2022-08-21T06:39:55;2.30;;;1.80;;
4634;SDS011;2330;48.158;11.816;2022-08-21T06:42:24;1.70;;;1.60;;
4634;SDS011;2330;48.158;11.816;2022-08-21T06:44:53;2.10;;;1.87;;
4634;SDS011;2330;48.158;11.816;2022-08-21T06:47:20;2.13;;;1.93;;
4634;SDS011;2330;48.158;11.816;2022-08-21T06:49:47;4.50;;;2.30;;
4634;SDS011;2330;48.158;11.816;2022-08-21T06:52:14;5.60;;;2.77;;
4634;SDS011;2330;48.158;11.816;2022-08-21T06:54:41;2.40;;;1.80;;
4634;SDS011;2330;48.158;11.816;2022-08-21T06:57:08;5.33;;;2.10;;
4634;SDS011;2330;48.158;11.816;2022-08-21T06:59:35;2.00;;;1.53;;
4634;SDS011;2330;48.158;11.816;2022-08-21T07:02:02;5.00;;;1.93;;
4634;SDS011;2330;48.158;11.816;2022-08-21T07:04:29;4.93;;;2.50;;
4634;SDS011;2330;48.158;11.816;2022-08-21T07:06:56;1.97;;;1.87;;
4634;SDS011;2330;48.158;11.816;2022-08-21T07:09:23;4.20;;;2.00;;
4634;SDS011;2330;48.158;11.816;2022-08-21T07:11:52;2.77;;;2.57;;
4634;SDS011;2330;48.158;11.816;2022-08-21T07:14:21;10.03;;;2.60;;
4634;SDS011;2330;48.158;11.816;2022-08-21T07:16:48;3.53;;;2.83;;
4634;SDS011;2330;48.158;11.816;2022-08-21T07:19:16;3.77;;;2.67;;
4634;SDS011;2330;48.158;11.816;2022-08-21T07:21:43;4.13;;;2.20;;
4634;SDS011;2330;48.158;11.816;2022-08-21T07:24:11;2.63;;;2.40;;
4634;SDS011;2330;48.158;11.816;2022-08-21T07:26:38;5.90;;;3.00;;
4634;SDS011;2330;48.158;11.816;2022-08-21T07:29:05;3.30;;;2.30;;
4634;SDS011;2330;48.158;11.816;2022-08-21T07:31:32;2.87;;;2.40;;
4634;SDS011;2330;48.158;11.816;2022-08-21T07:33:59;2.40;;;2.30;;
4634;SDS011;2330;48.158;11.816;2022-08-21T07:36:26;6.00;;;3.10;;
4634;SDS011;2330;48.158;11.816;2022-08-21T07:38:53;6.93;;;2.90;;
4634;SDS011;2330;48.158;11.816;2022-08-21T07:41:21;2.77;;;2.57;;
4634;SDS011;2330;48.158;11.816;2022-08-21T07:43:51;3.30;;;2.50;;
4634;SDS011;2330;48.158;11.816;2022-08-21T07:46:19;6.47;;;2.87;;
4634;SDS011;2330;48.158;11.816;2022-08-21T07:48:46;4.13;;;2.77;;
4634;SDS011;2330;48.158;11.816;2022-08-21T07:51:14;2.60;;;2.37;;
4634;SDS011;2330;48.158;11.816;2022-08-21T07:53:46;3.13;;;2.93;;
4634;SDS011;2330;48.158;11.816;2022-08-21T07:56:17;3.07;;;2.83;;
4634;SDS011;2330;48.158;11.816;2022-08-21T07:58:45;5.57;;;2.67;;
4634;SDS011;2330;48.158;11.816;2022-08-21T08:01:12;2.90;;;2.50;;
4634;SDS011;2330;48.158;11.816;2022-08-21T08:03:40;3.13;;;2.87;;
4634;SDS011;2330;48.158;11.816;2022-08-21T08:06:07;3.80;;;2.70;;
4634;SDS011;2330;48.158;11.816;2022-08-21T08:08:39;3.50;;;2.60;;
4634;SDS011;2330;48.158;11.816;2022-08-21T08:11:07;6.17;;;3.20;;
4634;SDS011;2330;48.158;11.816;2022-08-21T08:13:41;2.90;;;2.70;;
4634;SDS011;2330;48.158;11.816;2022-08-21T08:16:09;5.97;;;3.00;;
4634;SDS011;2330;48.158;11.816;2022-08-21T08:18:36;7.60;;;3.23;;
4634;SDS011;2330;48.158;11.816;2022-08-21T08:21:03;4.77;;;3.73;;
4634;SDS011;2330;48.158;11.816;2022-08-21T08:23:31;5.87;;;3.73;;
4634;SDS011;2330;48.158;11.816;2022-08-21T08:25:58;2.70;;;2.50;;
4634;SDS011;2330;48.158;11.816;2022-08-21T08:28:26;3.63;;;3.33;;
4634;SDS011;2330;48.158;11.816;2022-08-21T08:30:53;3.27;;;2.97;;
4634;SDS011;2330;48.158;11.816;2022-08-21T08:33:20;4.13;;;3.70;;
4634;SDS011;2330;48.158;11.816;2022-08-21T08:35:48;4.37;;;3.80;;
4634;SDS011;2330;48.158;11.816;2022-08-21T08:38:17;4.63;;;3.50;;
4634;SDS011;2330;48.158;11.816;2022-08-21T08:43:34;10.30;;;3.77;;
4634;SDS011;2330;48.158;11.816;2022-08-21T08:46:02;3.00;;;2.77;;
4634;SDS011;2330;48.158;11.816;2022-08-21T08:51:21;3.60;;;3.10;;
4634;SDS011;2330;48.158;11.816;2022-08-21T08:53:57;4.57;;;3.47;;
4634;SDS011;2330;48.158;11.816;2022-08-21T08:56:28;3.90;;;3.20;;
4634;SDS011;2330;48.158;11.816;2022-08-21T08:58:59;4.37;;;3.67;;
4634;SDS011;2330;48.158;11.816;2022-08-21T09:01:47;4.43;;;3.10;;
4634;SDS011;2330;48.158;11.816;2022-08-21T09:04:16;4.63;;;3.10;;
4634;SDS011;2330;48.158;11.816;2022-08-21T09:06:53;3.43;;;3.13;;
4634;SDS011;2330;48.158;11.816;2022-08-21T09:09:28;3.73;;;3.27;;
4634;SDS011;2330;48.158;11.816;2022-08-21T09:12:09;3.73;;;3.43;;
4634;SDS011;2330;48.158;11.816;2022-08-21T09:23:02;3.60;;;2.70;;
4634;SDS011;2330;48.158;11.816;2022-08-21T09:25:38;6.80;;;3.37;;
4634;SDS011;2330;48.158;11.816;2022-08-21T09:28:12;3.17;;;2.87;;
4634;SDS011;2330;48.158;11.816;2022-08-21T09:30:41;2.97;;;2.70;;
4634;SDS011;2330;48.158;11.816;2022-08-21T09:33:09;4.40;;;3.47;;
4634;SDS011;2330;48.158;11.816;2022-08-21T09:35:51;5.70;;;3.23;;
4634;SDS011;2330;48.158;11.816;2022-08-21T09:38:33;6.07;;;2.33;;
4634;SDS011;2330;48.158;11.816;2022-08-21T09:41:04;2.37;;;2.20;;
4634;SDS011;2330;48.158;11.816;2022-08-21T09:43:33;3.77;;;3.27;;
4634;SDS011;2330;48.158;11.816;2022-08-21T09:48:43;4.27;;;3.30;;
4634;SDS011;2330;48.158;11.816;2022-08-21T09:51:16;3.47;;;3.13;;
4634;SDS011;2330;48.158;11.816;2022-08-21T09:53:46;5.23;;;3.00;;
4634;SDS011;2330;48.158;11.816;2022-08-21T09:56:53;2.40;;;2.20;;
4634;SDS011;2330;48.158;11.816;2022-08-21T09:59:37;3.60;;;2.20;;
4634;SDS011;2330;48.158;11.816;2022-08-21T10:04:51;2.77;;;2.57;;
4634;SDS011;2330;48.158;11.816;2022-08-21T10:07:21;2.20;;;2.00;;
4634;SDS011;2330;48.158;11.816;2022-08-21T10:10:04;2.50;;;2.30;;
4634;SDS011;2330;48.158;11.816;2022-08-21T10:12:45;7.90;;;2.40;;
4634;SDS011;2330;48.158;11.816;2022-08-21T10:15:24;2.07;;;1.97;;
4634;SDS011;2330;48.158;11.816;2022-08-21T10:29:18;2.97;;;2.77;;
4634;SDS011;2330;48.158;11.816;2022-08-21T10:43:03;2.83;;;2.50;;
4634;SDS011;2330;48.158;11.816;2022-08-21T10:48:15;3.40;;;3.07;;
4634;SDS011;2330;48.158;11.816;2022-08-21T10:50:51;4.33;;;2.97;;
4634;SDS011;2330;48.158;11.816;2022-08-21T10:53:28;3.03;;;2.70;;
4634;SDS011;2330;48.158;11.816;2022-08-21T10:56:21;3.43;;;2.87;;
4634;SDS011;2330;48.158;11.816;2022-08-21T11:04:32;3.00;;;2.80;;
4634;SDS011;2330;48.158;11.816;2022-08-21T11:10:18;2.60;;;2.40;;
4634;SDS011;2330;48.158;11.816;2022-08-21T11:16:07;2.40;;;2.20;;
4634;SDS011;2330;48.158;11.816;2022-08-21T11:19:04;2.80;;;2.60;;
4634;SDS011;2330;48.158;11.816;2022-08-21T11:21:46;3.47;;;3.27;;
4634;SDS011;2330;48.158;11.816;2022-08-21T11:29:28;2.50;;;2.23;;
4634;SDS011;2330;48.158;11.816;2022-08-21T11:38:07;2.93;;;2.63;;
4634;SDS011;2330;48.158;11.816;2022-08-21T11:51:22;4.47;;;2.90;;
4634;SDS011;2330;48.158;11.816;2022-08-21T11:54:20;3.83;;;2.60;;
4634;SDS011;2330;48.158;11.816;2022-08-21T11:57:14;2.40;;;2.20;;
4634;SDS011;2330;48.158;11.816;2022-08-21T11:59:53;2.50;;;2.30;;
4634;SDS011;2330;48.158;11.816;2022-08-21T12:02:31;5.17;;;2.70;;
4634;SDS011;2330;48.158;11.816;2022-08-21T12:05:06;3.60;;;2.83;;
4634;SDS011;2330;48.158;11.816;2022-08-21T12:07:48;4.47;;;2.83;;
4634;SDS011;2330;48.158;11.816;2022-08-21T12:10:32;2.63;;;2.43;;
4634;SDS011;2330;48.158;11.816;2022-08-21T12:13:08;2.80;;;2.60;;
4634;SDS011;2330;48.158;11.816;2022-08-21T12:15:37;3.30;;;3.00;;
4634;SDS011;2330;48.158;11.816;2022-08-21T12:18:05;3.13;;;2.93;;
4634;SDS011;2330;48.158;11.816;2022-08-21T12:24:02;3.10;;;2.87;;
4634;SDS011;2330;48.158;11.816;2022-08-21T12:26:32;4.33;;;2.67;;
4634;SDS011;2330;48.158;11.816;2022-08-21T12:29:27;2.93;;;2.67;;
4634;SDS011;2330;48.158;11.816;2022-08-21T12:31:59;2.20;;;2.10;;
4634;SDS011;2330;48.158;11.816;2022-08-21T12:34:57;3.87;;;2.83;;
4634;SDS011;2330;48.158;11.816;2022-08-21T12:37:43;2.27;;;2.07;;
4634;SDS011;2330;48.158;11.816;2022-08-21T12:40:22;2.53;;;2.33;;
4634;SDS011;2330;48.158;11.816;2022-08-21T12:42:53;2.23;;;2.03;;
4634;SDS011;2330;48.158;11.816;2022-08-21T12:45:31;2.83;;;2.40;;
4634;SDS011;2330;48.158;11.816;2022-08-21T12:50:45;2.63;;;2.43;;
4634;SDS011;2330;48.158;11.816;2022-08-21T12:55:57;3.40;;;2.60;;
4634;SDS011;2330;48.158;11.816;2022-08-21T12:58:30;2.90;;;2.60;;
4634;SDS011;2330;48.158;11.816;2022-08-21T13:01:01;3.13;;;2.90;;
4634;SDS011;2330;48.158;11.816;2022-08-21T13:03:31;3.57;;;2.87;;
4634;SDS011;2330;48.158;11.816;2022-08-21T13:06:03;6.00;;;2.50;;
4634;SDS011;2330;48.158;11.816;2022-08-21T13:08:31;2.73;;;2.53;;
4634;SDS011;2330;48.158;11.816;2022-08-21T13:11:06;3.00;;;2.40;;
4634;SDS011;2330;48.158;11.816;2022-08-21T13:13:40;2.47;;;2.30;;
4634;SDS011;2330;48.158;11.816;2022-08-21T13:16:17;3.07;;;2.60;;
4634;SDS011;2330;48.158;11.816;2022-08-21T13:21:30;2.37;;;2.17;;
4634;SDS011;2330;48.158;11.816;2022-08-21T13:24:16;2.53;;;2.17;;
4634;SDS011;2330;48.158;11.816;2022-08-21T13:27:19;10.80;;;2.93;;
4634;SDS011;2330;48.158;11.816;2022-08-21T13:29:48;2.10;;;2.00;;
4634;SDS011;2330;48.158;11.816;2022-08-21T13:32:35;2.07;;;1.97;;
4634;SDS011;2330;48.158;11.816;2022-08-21T13:38:12;2.53;;;2.43;;
4634;SDS011;2330;48.158;11.816;2022-08-21T13:40:44;3.40;;;2.47;;
4634;SDS011;2330;48.158;11.816;2022-08-21T13:43:20;2.17;;;1.97;;
4634;SDS011;2330;48.158;11.816;2022-08-21T13:45:55;2.83;;;2.40;;
4634;SDS011;2330;48.158;11.816;2022-08-21T13:48:24;2.40;;;2.20;;
4634;SDS011;2330;48.158;11.816;2022-08-21T13:50:53;2.30;;;2.10;;
4634;SDS011;2330;48.158;11.816;2022-08-21T13:56:03;3.17;;;2.20;;
4634;SDS011;2330;48.158;11.816;2022-08-21T13:58:32;2.90;;;2.60;;
4634;SDS011;2330;48.158;11.816;2022-08-21T14:01:17;2.73;;;2.53;;
4634;SDS011;2330;48.158;11.816;2022-08-21T14:03:52;3.13;;;2.70;;
4634;SDS011;2330;48.158;11.816;2022-08-21T14:06:25;3.33;;;2.63;;
4634;SDS011;2330;48.158;11.816;2022-08-21T14:09:02;2.50;;;2.30;;
4634;SDS011;2330;48.158;11.816;2022-08-21T14:11:35;2.93;;;2.40;;
4634;SDS011;2330;48.158;11.816;2022-08-21T14:14:03;2.13;;;2.03;;
4634;SDS011;2330;48.158;11.816;2022-08-21T14:16:43;5.33;;;2.47;;
4634;SDS011;2330;48.158;11.816;2022-08-21T14:19:19;2.50;;;2.30;;
4634;SDS011;2330;48.158;11.816;2022-08-21T14:21:48;3.17;;;2.63;;
4634;SDS011;2330;48.158;11.816;2022-08-21T14:26:50;7.70;;;2.17;;
4634;SDS011;2330;48.158;11.816;2022-08-21T14:29:26;3.10;;;2.33;;
4634;SDS011;2330;48.158;11.816;2022-08-21T14:31:59;2.90;;;2.43;;
4634;SDS011;2330;48.158;11.816;2022-08-21T14:34:47;2.43;;;2.23;;
4634;SDS011;2330;48.158;11.816;2022-08-21T14:37:13;2.43;;;2.23;;
4634;SDS011;2330;48.158;11.816;2022-08-21T14:39:40;6.80;;;2.53;;
4634;SDS011;2330;48.158;11.816;2022-08-21T14:42:10;1.93;;;1.83;;
4634;SDS011;2330;48.158;11.816;2022-08-21T14:44:38;2.37;;;2.17;;
4634;SDS011;2330;48.158;11.816;2022-08-21T14:47:05;3.00;;;2.30;;
4634;SDS011;2330;48.158;11.816;2022-08-21T14:49:31;2.67;;;2.37;;
4634;SDS011;2330;48.158;11.816;2022-08-21T14:51:58;3.27;;;2.17;;
4634;SDS011;2330;48.158;11.816;2022-08-21T14:54:28;3.90;;;2.27;;
4634;SDS011;2330;48.158;11.816;2022-08-21T14:57:02;4.40;;;2.33;;
4634;SDS011;2330;48.158;11.816;2022-08-21T14:59:34;3.40;;;2.87;;
4634;SDS011;2330;48.158;11.816;2022-08-21T15:02:01;2.33;;;2.13;;
4634;SDS011;2330;48.158;11.816;2022-08-21T15:04:30;2.33;;;2.13;;
4634;SDS011;2330;48.158;11.816;2022-08-21T15:06:57;2.23;;;1.90;;
4634;SDS011;2330;48.158;11.816;2022-08-21T15:09:24;2.00;;;1.90;;
4634;SDS011;2330;48.158;11.816;2022-08-21T15:11:52;2.47;;;2.20;;
4634;SDS011;2330;48.158;11.816;2022-08-21T15:14:22;2.30;;;2.10;;
4634;SDS011;2330;48.158;11.816;2022-08-21T15:16:51;2.00;;;1.90;;
4634;SDS011;2330;48.158;11.816;2022-08-21T15:19:18;2.00;;;1.90;;
4634;SDS011;2330;48.158;11.816;2022-08-21T15:21:45;3.13;;;1.97;;
4634;SDS011;2330;48.158;11.816;2022-08-21T15:24:12;2.27;;;2.07;;
4634;SDS011;2330;48.158;11.816;2022-08-21T15:26:39;2.70;;;2.50;;
4634;SDS011;2330;48.158;11.816;2022-08-21T15:29:06;2.10;;;1.93;;
4634;SDS011;2330;48.158;11.816;2022-08-21T15:31:34;2.30;;;1.90;;
4634;SDS011;2330;48.158;11.816;2022-08-21T15:34:01;2.67;;;2.30;;
4634;SDS011;2330;48.158;11.816;2022-08-21T15:36:29;6.70;;;2.30;;
4634;SDS011;2330;48.158;11.816;2022-08-21T15:38:55;3.33;;;2.63;;
4634;SDS011;2330;48.158;11.816;2022-08-21T15:41:22;3.33;;;2.30;;
4634;SDS011;2330;48.158;11.816;2022-08-21T15:43:50;2.90;;;2.47;;
4634;SDS011;2330;48.158;11.816;2022-08-21T15:46:19;2.67;;;2.40;;
4634;SDS011;2330;48.158;11.816;2022-08-21T15:48:46;2.53;;;2.13;;
4634;SDS011;2330;48.158;11.816;2022-08-21T15:51:14;2.70;;;2.40;;
4634;SDS011;2330;48.158;11.816;2022-08-21T15:53:42;3.50;;;2.53;;
4634;SDS011;2330;48.158;11.816;2022-08-21T15:56:55;2.10;;;1.90;;
4634;SDS011;2330;48.158;11.816;2022-08-21T15:59:05;3.20;;;2.30;;
4634;SDS011;2330;48.158;11.816;2022-08-21T16:01:38;2.40;;;2.10;;
4634;SDS011;2330;48.158;11.816;2022-08-21T16:04:10;2.03;;;1.93;;
4634;SDS011;2330;48.158;11.816;2022-08-21T16:06:44;2.90;;;2.07;;
4634;SDS011;2330;48.158;11.816;2022-08-21T16:09:22;2.40;;;2.20;;
4634;SDS011;2330;48.158;11.816;2022-08-21T16:11:49;3.63;;;2.90;;
4634;SDS011;2330;48.158;11.816;2022-08-21T16:14:17;4.30;;;2.43;;
4634;SDS011;2330;48.158;11.816;2022-08-21T16:16:44;2.40;;;2.20;;
4634;SDS011;2330;48.158;11.816;2022-08-21T16:19:11;2.53;;;2.27;;
4634;SDS011;2330;48.158;11.816;2022-08-21T16:21:39;4.63;;;2.90;;
4634;SDS011;2330;48.158;11.816;2022-08-21T16:24:06;3.10;;;2.80;;
4634;SDS011;2330;48.158;11.816;2022-08-21T16:26:33;3.93;;;2.60;;
4634;SDS011;2330;48.158;11.816;2022-08-21T16:29:00;3.20;;;3.00;;
4634;SDS011;2330;48.158;11.816;2022-08-21T16:31:29;3.80;;;3.40;;
4634;SDS011;2330;48.158;11.816;2022-08-21T16:33:56;3.70;;;2.83;;
4634;SDS011;2330;48.158;11.816;2022-08-21T16:36:24;5.23;;;2.73;;
4634;SDS011;2330;48.158;11.816;2022-08-21T16:38:55;2.47;;;2.13;;
4634;SDS011;2330;48.158;11.816;2022-08-21T16:41:23;2.63;;;2.43;;
4634;SDS011;2330;48.158;11.816;2022-08-21T16:43:52;5.03;;;2.40;;
4634;SDS011;2330;48.158;11.816;2022-08-21T16:46:20;2.77;;;2.50;;
4634;SDS011;2330;48.158;11.816;2022-08-21T16:48:47;5.50;;;2.80;;
4634;SDS011;2330;48.158;11.816;2022-08-21T16:51:15;5.77;;;3.00;;
4634;SDS011;2330;48.158;11.816;2022-08-21T16:53:42;4.37;;;3.00;;
4634;SDS011;2330;48.158;11.816;2022-08-21T16:56:10;3.57;;;2.50;;
4634;SDS011;2330;48.158;11.816;2022-08-21T16:58:40;3.20;;;2.77;;